createdAt,value
2019-02-17T00:00:39.263Z,100922.30
2019-02-17T00:03:07.993Z,100923.15
2019-02-17T00:05:36.792Z,100913.98
2019-02-17T00:08:05.527Z,100917.27
2019-02-17T00:10:34.254Z,100911.33
2019-02-17T00:13:03.064Z,100915.73
2019-02-17T00:15:31.794Z,100915.73
2019-02-17T00:18:00.522Z,100911.41
2019-02-17T00:20:29.390Z,100910.70
2019-02-17T00:22:58.147Z,100914.30
2019-02-17T00:25:26.853Z,100918.75
2019-02-17T00:27:55.747Z,100916.81
2019-02-17T00:30:24.480Z,100916.92
2019-02-17T00:32:53.207Z,100912.06
2019-02-17T00:35:22.062Z,100907.36
2019-02-17T00:37:50.802Z,100912.78
2019-02-17T00:40:19.532Z,100905.77
2019-02-17T00:42:48.365Z,100904.91
2019-02-17T00:45:17.298Z,100895.99
2019-02-17T00:47:46.026Z,100903.09
2019-02-17T00:50:14.928Z,100898.84
2019-02-17T00:52:43.657Z,100894.55
2019-02-17T00:55:12.380Z,100888.58
2019-02-17T00:57:41.166Z,100885.65
2019-02-17T01:00:12.689Z,100881.37
2019-02-17T01:02:41.429Z,100885.75
2019-02-17T01:05:10.502Z,100879.45
2019-02-17T01:07:39.239Z,100875.61
2019-02-17T01:10:08.861Z,100871.44
2019-02-17T01:12:37.710Z,100868.58
2019-02-17T01:15:11.649Z,100873.50
2019-02-17T01:17:40.380Z,100872.67
2019-02-17T01:20:10.556Z,100870.39
2019-02-17T01:22:39.283Z,100879.78
2019-02-17T01:25:11.544Z,100876.98
2019-02-17T01:27:40.417Z,100871.84
2019-02-17T01:30:12.055Z,100872.14
2019-02-17T01:32:40.777Z,100868.73
2019-02-17T01:35:09.784Z,100867.81
2019-02-17T01:37:38.499Z,100863.96
2019-02-17T01:40:09.497Z,100859.26
2019-02-17T01:42:38.402Z,100864.01
2019-02-17T01:45:09.499Z,100854.01
2019-02-17T01:47:38.242Z,100856.47
2019-02-17T01:50:09.398Z,100845.20
2019-02-17T01:52:38.145Z,100843.75
2019-02-17T01:55:08.773Z,100843.37
2019-02-17T01:57:37.664Z,100846.52
2019-02-17T02:00:12.403Z,100840.63
2019-02-17T02:02:41.135Z,100840.02
2019-02-17T02:05:10.133Z,100838.86
2019-02-17T02:07:38.862Z,100845.81
2019-02-17T02:10:09.790Z,100833.48
2019-02-17T02:12:38.919Z,100844.73
2019-02-17T02:15:10.202Z,100841.19
2019-02-17T02:17:38.953Z,100847.48
2019-02-17T02:20:10.681Z,100840.77
2019-02-17T02:22:39.407Z,100838.67
2019-02-17T02:25:08.639Z,100842.08
2019-02-17T02:27:37.408Z,100845.08
2019-02-17T02:30:09.114Z,100842.78
2019-02-17T02:32:37.841Z,100836.30
2019-02-17T02:35:07.589Z,100832.52
2019-02-17T02:37:36.312Z,100835.69
2019-02-17T02:40:06.044Z,100833.13
2019-02-17T02:42:37.562Z,100832.56
2019-02-17T02:45:09.287Z,100827.85
2019-02-17T02:47:38.014Z,100830.06
2019-02-17T02:50:10.012Z,100827.98
2019-02-17T02:52:38.734Z,100824.69
2019-02-17T02:55:08.467Z,100820.97
2019-02-17T02:57:37.584Z,100823.57
2019-02-17T03:00:11.789Z,100824.69
2019-02-17T03:02:40.531Z,100829.56
2019-02-17T03:05:09.600Z,100823.16
2019-02-17T03:07:38.329Z,100828.64
2019-02-17T03:10:09.165Z,100821.66
2019-02-17T03:12:37.973Z,100821.66
2019-02-17T03:15:08.599Z,100819.80
2019-02-17T03:17:37.360Z,100823.48
2019-02-17T03:20:09.113Z,100816.50
2019-02-17T03:22:37.844Z,100816.08
2019-02-17T03:25:07.372Z,100814.35
2019-02-17T03:27:36.239Z,100806.66
2019-02-17T03:30:07.433Z,100806.66
2019-02-17T03:32:36.236Z,100806.53
2019-02-17T03:35:05.525Z,100802.11
2019-02-17T03:37:34.257Z,100813.25
2019-02-17T03:40:02.984Z,100810.83
2019-02-17T03:42:31.757Z,100811.69
2019-02-17T03:45:00.492Z,100809.83
2019-02-17T03:47:29.257Z,100812.14
2019-02-17T03:49:58.089Z,100809.64
2019-02-17T03:52:26.813Z,100811.66
2019-02-17T03:54:55.538Z,100811.37
2019-02-17T03:57:24.354Z,100811.37
2019-02-17T03:59:53.077Z,100813.55
2019-02-17T04:02:21.805Z,100814.48
2019-02-17T04:04:50.566Z,100815.66
2019-02-17T04:07:19.308Z,100815.19
2019-02-17T04:09:48.033Z,100815.19
2019-02-17T04:12:16.901Z,100802.72
2019-02-17T04:14:45.636Z,100804.28
2019-02-17T04:17:14.373Z,100805.63
2019-02-17T04:19:43.338Z,100802.72
2019-02-17T04:22:12.173Z,100800.63
2019-02-17T04:24:40.905Z,100804.10
2019-02-17T04:27:09.778Z,100807.33
2019-02-17T04:29:38.521Z,100813.09
2019-02-17T04:32:07.254Z,100812.02
2019-02-17T04:34:36.101Z,100854.31
2019-02-17T04:37:04.829Z,100805.84
2019-02-17T04:39:33.563Z,100809.20
2019-02-17T04:42:02.352Z,100815.73
2019-02-17T04:44:31.087Z,100818.38
2019-02-17T04:46:59.916Z,100815.66
2019-02-17T04:49:28.803Z,100813.52
2019-02-17T04:51:57.568Z,100817.88
2019-02-17T04:54:26.301Z,100809.36
2019-02-17T04:56:55.093Z,100809.36
2019-02-17T04:59:23.831Z,100809.77
2019-02-17T05:01:52.567Z,100800.16
2019-02-17T05:04:21.379Z,100800.16
2019-02-17T05:06:50.109Z,100794.72
2019-02-17T05:09:18.834Z,100800.38
2019-02-17T05:11:49.772Z,100796.11
2019-02-17T05:14:18.496Z,100796.11
2019-02-17T05:16:47.223Z,100810.23
2019-02-17T05:19:16.030Z,100810.23
2019-02-17T05:21:44.754Z,100798.27
2019-02-17T05:24:13.485Z,100798.27
2019-02-17T05:26:42.349Z,100807.48
2019-02-17T05:29:11.094Z,100817.77
2019-02-17T05:31:39.827Z,100817.46
2019-02-17T05:34:08.718Z,100817.46
2019-02-17T05:36:37.451Z,100821.59
2019-02-17T05:39:06.779Z,100824.13
2019-02-17T05:41:35.710Z,100836.11
2019-02-17T05:44:04.442Z,100836.11
2019-02-17T05:46:33.156Z,100841.39
2019-02-17T05:49:01.933Z,100846.17
2019-02-17T05:51:36.753Z,100844.23
2019-02-17T05:54:07.164Z,100844.44
2019-02-17T05:56:35.891Z,100844.44
2019-02-17T05:59:11.022Z,100846.11
2019-02-17T06:01:40.206Z,100843.88
2019-02-17T06:04:09.165Z,100843.88
2019-02-17T06:06:39.933Z,100844.53
2019-02-17T06:09:10.327Z,100844.66
2019-02-17T06:11:39.038Z,100848.68
2019-02-17T06:14:07.786Z,100850.17
2019-02-17T06:16:36.615Z,100850.37
2019-02-17T06:19:05.347Z,100852.08
2019-02-17T06:21:34.074Z,100853.60
2019-02-17T06:24:04.246Z,100851.70
2019-02-17T06:26:32.997Z,100846.59
2019-02-17T06:29:01.719Z,100852.35
2019-02-17T06:31:30.492Z,100849.41
2019-02-17T06:33:59.228Z,100848.73
2019-02-17T06:36:36.996Z,100852.52
2019-02-17T06:39:06.842Z,100850.55
2019-02-17T06:41:35.576Z,100857.00
2019-02-17T06:44:04.328Z,100857.13
2019-02-17T06:46:37.126Z,100855.96
2019-02-17T06:49:05.861Z,100849.17
2019-02-17T06:54:15.995Z,100854.66
2019-02-17T06:56:49.041Z,100863.98
2019-02-17T06:59:17.770Z,100859.92
2019-02-17T07:01:46.750Z,100864.84
2019-02-17T07:04:15.527Z,100861.15
2019-02-17T07:06:45.860Z,100863.28
2019-02-17T07:09:14.720Z,100857.29
2019-02-17T07:11:43.463Z,100862.77
2019-02-17T07:14:12.186Z,100856.12
2019-02-17T07:16:41.489Z,100859.59
2019-02-17T07:19:10.217Z,100865.24
2019-02-17T07:21:38.942Z,100865.34
2019-02-17T07:24:07.826Z,100867.23
2019-02-17T07:26:36.553Z,100877.09
2019-02-17T07:29:05.290Z,100865.06
2019-02-17T07:31:35.362Z,100872.39
2019-02-17T07:34:04.216Z,100870.45
2019-02-17T07:36:32.942Z,100867.84
2019-02-17T07:39:01.751Z,100873.63
2019-02-17T07:41:30.510Z,100873.83
2019-02-17T07:43:59.194Z,100870.42
2019-02-17T07:46:28.065Z,100866.00
2019-02-17T07:48:56.797Z,100871.35
2019-02-17T07:51:25.520Z,100868.23
2019-02-17T07:53:54.487Z,100871.88
2019-02-17T07:56:23.213Z,100873.83
2019-02-17T07:58:53.058Z,100877.84
2019-02-17T08:01:21.926Z,100867.28
2019-02-17T08:03:50.661Z,100873.94
2019-02-17T08:06:19.401Z,100866.38
2019-02-17T08:08:48.285Z,100866.19
2019-02-17T08:11:17.004Z,100863.39
2019-02-17T08:13:45.735Z,100865.09
2019-02-17T08:16:14.827Z,100857.20
2019-02-17T08:18:43.551Z,100849.71
2019-02-17T08:21:12.281Z,100850.81
2019-02-17T08:23:41.124Z,100849.20
2019-02-17T08:26:09.862Z,100844.88
2019-02-17T08:28:38.586Z,100836.46
2019-02-17T08:31:07.494Z,100834.56
2019-02-17T08:33:36.220Z,100838.52
2019-02-17T08:36:04.949Z,100839.20
2019-02-17T08:38:33.920Z,100834.72
2019-02-17T08:41:02.658Z,100830.59
2019-02-17T08:43:31.489Z,100829.04
2019-02-17T08:46:00.324Z,100828.21
2019-02-17T08:48:29.054Z,100825.80
2019-02-17T08:50:57.787Z,100829.97
2019-02-17T08:53:26.837Z,100829.39
2019-02-17T08:55:55.561Z,100831.16
2019-02-17T08:58:24.296Z,100825.41
2019-02-17T09:00:53.219Z,100830.52
2019-02-17T09:03:21.949Z,100828.48
2019-02-17T09:05:50.677Z,100823.84
2019-02-17T09:08:19.550Z,100822.98
2019-02-17T09:10:48.284Z,100821.07
2019-02-17T09:13:18.589Z,100816.48
2019-02-17T09:15:47.694Z,100819.80
2019-02-17T09:18:16.430Z,100812.64
2019-02-17T09:20:45.156Z,100816.92
2019-02-17T09:23:14.004Z,100817.73
2019-02-17T09:25:42.730Z,100823.69
2019-02-17T09:28:11.463Z,100815.88
2019-02-17T09:30:40.262Z,100824.78
2019-02-17T09:33:08.991Z,100818.52
2019-02-17T09:35:37.714Z,100820.05
2019-02-17T09:38:06.512Z,100815.11
2019-02-17T09:40:35.239Z,100808.79
2019-02-17T09:43:03.966Z,100808.06
2019-02-17T09:45:32.812Z,100812.77
2019-02-17T09:48:01.551Z,100805.69
2019-02-17T09:50:30.286Z,100809.87
2019-02-17T09:52:59.050Z,100807.22
2019-02-17T09:55:27.782Z,100804.90
2019-02-17T09:57:56.517Z,100798.05
2019-02-17T10:00:25.380Z,100801.97
2019-02-17T10:02:54.171Z,100790.70
2019-02-17T10:05:22.910Z,100792.43
2019-02-17T10:07:51.707Z,100783.34
2019-02-17T10:10:21.138Z,100782.81
2019-02-17T10:12:49.938Z,100780.97
2019-02-17T10:15:18.856Z,100773.94
2019-02-17T10:17:47.584Z,100781.43
2019-02-17T10:20:16.618Z,100778.42
2019-02-17T10:22:45.608Z,100769.93
2019-02-17T10:25:14.353Z,100768.13
2019-02-17T10:27:43.100Z,100757.61
2019-02-17T10:30:14.439Z,100754.22
2019-02-17T10:32:43.154Z,100753.09
2019-02-17T10:35:11.887Z,100744.97
2019-02-17T10:37:40.663Z,100742.73
2019-02-17T10:40:17.156Z,100735.17
2019-02-17T10:42:46.050Z,100731.05
2019-02-17T10:45:14.978Z,100728.64
2019-02-17T10:47:43.736Z,100723.84
2019-02-17T10:50:13.347Z,100719.63
2019-02-17T10:52:42.086Z,100712.01
2019-02-17T10:55:12.518Z,100704.22
2019-02-17T10:57:41.521Z,100703.23
2019-02-17T11:00:22.112Z,100699.38
2019-02-17T11:02:51.087Z,100694.83
2019-02-17T11:05:19.894Z,100690.92
2019-02-17T11:07:48.627Z,100684.83
2019-02-17T11:10:17.602Z,100681.98
2019-02-17T11:12:46.346Z,100678.50
2019-02-17T11:15:17.660Z,100672.89
2019-02-17T11:17:46.441Z,100667.98
2019-02-17T11:20:15.172Z,100662.75
2019-02-17T11:22:44.048Z,100666.20
2019-02-17T11:25:13.361Z,100662.30
2019-02-17T11:27:42.098Z,100656.50
2019-02-17T11:30:19.571Z,100648.32
2019-02-17T11:32:57.633Z,100641.61
2019-02-17T11:35:18.767Z,100634.92
2019-02-17T11:37:47.579Z,100634.05
2019-02-17T11:40:16.316Z,100633.70
2019-02-17T11:42:45.155Z,100629.64
2019-02-17T11:45:18.441Z,100628.69
2019-02-17T11:47:47.173Z,100624.31
2019-02-17T11:50:16.082Z,100619.39
2019-02-17T11:52:44.854Z,100621.14
2019-02-17T11:55:16.035Z,100615.40
2019-02-17T11:57:44.780Z,100610.73
2019-02-17T12:00:20.030Z,100612.34
2019-02-17T12:02:48.761Z,100604.61
2019-02-17T12:05:17.556Z,100600.28
2019-02-17T12:07:46.331Z,100592.83
2019-02-17T12:10:15.100Z,100594.84
2019-02-17T12:12:44.134Z,100588.39
2019-02-17T12:15:14.334Z,100582.09
2019-02-17T12:17:43.080Z,100582.32
2019-02-17T12:20:23.343Z,100574.59
2019-02-17T12:22:56.741Z,100568.39
2019-02-17T12:25:27.085Z,100574.05
2019-02-17T12:28:00.139Z,100567.34
2019-02-17T12:30:28.876Z,100577.29
2019-02-17T12:32:58.064Z,100569.94
2019-02-17T12:35:26.780Z,100567.37
2019-02-17T12:37:55.516Z,100560.98
2019-02-17T12:40:24.285Z,100562.52
2019-02-17T12:42:53.005Z,100554.38
2019-02-17T12:45:21.738Z,100553.94
2019-02-17T12:47:57.420Z,100551.92
2019-02-17T12:50:21.003Z,100548.80
2019-02-17T12:52:49.737Z,100540.81
2019-02-17T12:55:18.614Z,100539.31
2019-02-17T12:57:47.355Z,100536.77
2019-02-17T13:00:17.698Z,100539.88
2019-02-17T13:02:46.568Z,100535.27
2019-02-17T13:05:15.324Z,100539.71
2019-02-17T13:07:44.054Z,100537.30
2019-02-17T13:10:13.399Z,100533.27
2019-02-17T13:12:42.133Z,100527.33
2019-02-17T13:15:12.566Z,100528.53
2019-02-17T13:17:41.470Z,100522.76
2019-02-17T13:20:16.615Z,100525.65
2019-02-17T13:22:45.360Z,100520.50
2019-02-17T13:25:16.210Z,100526.93
2019-02-17T13:27:44.947Z,100521.31
2019-02-17T13:30:24.895Z,100521.44
2019-02-17T13:32:53.623Z,100515.73
2019-02-17T13:35:22.353Z,100512.88
2019-02-17T13:37:51.262Z,100510.14
2019-02-17T13:40:19.990Z,100501.59
2019-02-17T13:42:48.716Z,100499.95
2019-02-17T13:45:18.329Z,100492.08
2019-02-17T13:47:47.079Z,100490.15
2019-02-17T13:50:16.796Z,100487.14
2019-02-17T13:52:45.599Z,100485.91
2019-02-17T13:55:14.523Z,100485.09
2019-02-17T13:57:43.259Z,100478.95
2019-02-17T14:00:16.906Z,100475.05
2019-02-17T14:02:45.636Z,100468.84
2019-02-17T14:05:14.472Z,100474.27
2019-02-17T14:07:43.264Z,100471.97
2019-02-17T14:10:14.113Z,100472.52
2019-02-17T14:12:43.055Z,100471.54
2019-02-17T14:15:14.386Z,100463.25
2019-02-17T14:17:43.113Z,100470.84
2019-02-17T14:20:11.939Z,100462.71
2019-02-17T14:22:40.733Z,100466.76
2019-02-17T14:25:11.380Z,100458.55
2019-02-17T14:27:40.174Z,100463.53
2019-02-17T14:30:16.014Z,100459.06
2019-02-17T14:32:44.759Z,100461.42
2019-02-17T14:35:13.591Z,100460.00
2019-02-17T14:37:42.408Z,100456.66
2019-02-17T14:40:15.572Z,100450.58
2019-02-17T14:42:44.314Z,100449.90
2019-02-17T14:45:17.278Z,100447.95
2019-02-17T14:47:45.991Z,100449.09
2019-02-17T14:50:14.720Z,100445.83
2019-02-17T14:52:43.717Z,100444.50
2019-02-17T14:55:13.157Z,100441.16
2019-02-17T14:57:41.908Z,100440.78
2019-02-17T15:00:14.113Z,100438.38
2019-02-17T15:02:42.845Z,100437.92
2019-02-17T15:05:11.687Z,100434.58
2019-02-17T15:07:40.508Z,100435.47
2019-02-17T15:10:11.052Z,100430.88
2019-02-17T15:12:39.782Z,100433.20
2019-02-17T15:15:13.023Z,100432.80
2019-02-17T15:17:41.761Z,100431.06
2019-02-17T15:20:13.512Z,100428.06
2019-02-17T15:22:42.296Z,100433.06
2019-02-17T15:25:12.044Z,100430.14
2019-02-17T15:27:40.766Z,100422.89
2019-02-17T15:30:12.446Z,100426.70
2019-02-17T15:32:41.176Z,100418.11
2019-02-17T15:35:09.909Z,100422.20
2019-02-17T15:37:38.877Z,100421.05
2019-02-17T15:40:10.621Z,100413.55
2019-02-17T15:42:39.346Z,100416.48
2019-02-17T15:45:15.628Z,100420.82
2019-02-17T15:47:44.358Z,100414.85
2019-02-17T15:50:14.489Z,100421.44
2019-02-17T15:52:43.281Z,100421.81
2019-02-17T15:55:17.745Z,100425.27
2019-02-17T15:57:46.482Z,100426.36
2019-02-17T16:00:16.787Z,100428.77
2019-02-17T16:02:45.516Z,100428.45
2019-02-17T16:05:14.556Z,100430.02
2019-02-17T16:07:43.535Z,100432.71
2019-02-17T16:10:13.653Z,100430.74
2019-02-17T16:12:42.397Z,100432.25
2019-02-17T16:15:24.061Z,100432.33
2019-02-17T16:17:52.823Z,100433.17
2019-02-17T16:20:21.635Z,100424.59
2019-02-17T16:22:50.389Z,100429.87
2019-02-17T16:25:18.795Z,100426.31
2019-02-17T16:27:50.530Z,100432.59
2019-02-17T16:30:23.773Z,100435.77
2019-02-17T16:32:52.517Z,100433.43
2019-02-17T16:35:21.440Z,100433.94
2019-02-17T16:37:50.211Z,100438.11
2019-02-17T16:40:19.499Z,100442.02
2019-02-17T16:42:48.222Z,100435.99
2019-02-17T16:45:17.129Z,100435.75
2019-02-17T16:47:46.077Z,100434.98
2019-02-17T16:50:23.030Z,100441.77
2019-02-17T16:52:51.815Z,100439.16
2019-02-17T16:55:20.595Z,100444.92
2019-02-17T16:57:49.588Z,100441.53
2019-02-17T17:00:25.242Z,100444.38
2019-02-17T17:02:55.195Z,100447.53
2019-02-17T17:05:24.640Z,100447.50
2019-02-17T17:07:53.479Z,100445.39
2019-02-17T17:10:22.653Z,100448.27
2019-02-17T17:12:51.391Z,100448.53
2019-02-17T17:15:20.695Z,100446.69
2019-02-17T17:17:49.564Z,100449.27
2019-02-17T17:20:22.847Z,100453.94
2019-02-17T17:22:51.687Z,100454.45
2019-02-17T17:25:22.447Z,100452.34
2019-02-17T17:27:51.263Z,100453.39
2019-02-17T17:30:20.339Z,100454.63
2019-02-17T17:32:49.120Z,100456.13
2019-02-17T17:35:17.857Z,100457.67
2019-02-17T17:37:46.600Z,100461.09
2019-02-17T17:40:16.883Z,100463.94
2019-02-17T17:42:45.626Z,100462.89
2019-02-17T17:45:22.605Z,100470.59
2019-02-17T17:47:51.343Z,100472.13
2019-02-17T17:50:20.122Z,100466.28
2019-02-17T17:52:49.071Z,100466.80
2019-02-17T17:55:17.820Z,100470.63
2019-02-17T17:57:46.764Z,100465.97
2019-02-17T18:00:20.818Z,100463.33
2019-02-17T18:02:49.593Z,100461.42
2019-02-17T18:05:18.351Z,100462.14
2019-02-17T18:07:47.154Z,100457.44
2019-02-17T18:10:17.070Z,100458.67
2019-02-17T18:12:45.808Z,100465.11
2019-02-17T18:15:20.703Z,100463.98
2019-02-17T18:17:54.241Z,100464.42
2019-02-17T18:20:23.939Z,100465.16
2019-02-17T18:22:53.161Z,100463.56
2019-02-17T18:25:31.136Z,100460.82
2019-02-17T18:28:00.260Z,100456.39
2019-02-17T18:30:28.984Z,100460.20
2019-02-17T18:32:57.735Z,100463.28
2019-02-17T18:35:26.613Z,100460.82
2019-02-17T18:37:55.347Z,100460.44
2019-02-17T18:40:24.098Z,100460.57
2019-02-17T18:42:54.610Z,100459.45
2019-02-17T18:45:23.355Z,100468.38
2019-02-17T18:47:52.098Z,100461.63
2019-02-17T18:50:20.913Z,100462.75
2019-02-17T18:52:49.667Z,100461.93
2019-02-17T18:55:18.436Z,100461.93
2019-02-17T18:57:50.845Z,100469.44
2019-02-17T19:00:23.792Z,100464.39
2019-02-17T19:02:52.675Z,100467.58
2019-02-17T19:05:31.032Z,100469.41
2019-02-17T19:07:52.065Z,100470.64
2019-02-17T19:10:20.895Z,100468.41
2019-02-17T19:12:49.634Z,100476.89
2019-02-17T19:15:20.524Z,100471.64
2019-02-17T19:17:49.525Z,100472.70
2019-02-17T19:20:26.831Z,100474.73
2019-02-17T19:22:55.737Z,100474.92
2019-02-17T19:25:24.488Z,100478.29
2019-02-17T19:27:53.219Z,100477.50
2019-02-17T19:30:22.094Z,100478.67
2019-02-17T19:32:52.732Z,100486.89
2019-02-17T19:35:21.511Z,100482.83
2019-02-17T19:37:50.380Z,100479.11
2019-02-17T19:40:19.123Z,100482.21
2019-02-17T19:42:47.860Z,100483.19
2019-02-17T19:45:17.669Z,100492.19
2019-02-17T19:47:46.407Z,100482.35
2019-02-17T19:50:16.453Z,100488.34
2019-02-17T19:52:45.619Z,100485.73
2019-02-17T19:55:15.161Z,100486.19
2019-02-17T19:57:43.900Z,100487.13
2019-02-17T20:00:17.272Z,100491.20
2019-02-17T20:02:56.559Z,100488.29
2019-02-17T20:05:27.727Z,100494.48
2019-02-17T20:07:56.470Z,100488.75
2019-02-17T20:10:25.286Z,100494.39
2019-02-17T20:12:54.061Z,100493.97
2019-02-17T20:15:24.368Z,100500.99
2019-02-17T20:17:53.093Z,100492.97
2019-02-17T20:20:21.858Z,100501.13
2019-02-17T20:22:50.591Z,100501.89
2019-02-17T20:25:19.318Z,100507.56
2019-02-17T20:27:48.103Z,100502.39
2019-02-17T20:30:16.827Z,100502.89
2019-02-17T20:32:45.544Z,100509.61
2019-02-17T20:35:14.635Z,100508.02
2019-02-17T20:37:43.365Z,100509.81
2019-02-17T20:40:13.990Z,100508.50
2019-02-17T20:42:42.890Z,100505.13
2019-02-17T20:45:16.965Z,100512.66
2019-02-17T20:47:43.011Z,100514.81
2019-02-17T20:50:14.733Z,100515.44
2019-02-17T20:52:43.461Z,100510.20
2019-02-17T20:55:14.118Z,100510.55
2019-02-17T20:57:43.242Z,100509.64
2019-02-17T21:00:18.100Z,100510.90
2019-02-17T21:02:46.839Z,100515.34
2019-02-17T21:05:15.970Z,100515.60
2019-02-17T21:07:44.703Z,100507.68
2019-02-17T21:10:15.386Z,100508.88
2019-02-17T21:12:44.230Z,100506.46
2019-02-17T21:15:14.131Z,100507.68
2019-02-17T21:17:42.857Z,100504.14
2019-02-17T21:20:12.065Z,100501.98
2019-02-17T21:22:40.785Z,100507.45
2019-02-17T21:25:11.212Z,100504.14
2019-02-17T21:27:40.308Z,100503.28
2019-02-17T21:30:14.622Z,100501.17
2019-02-17T21:32:43.357Z,100502.89
2019-02-17T21:35:13.952Z,100501.33
2019-02-17T21:37:42.682Z,100506.23
2019-02-17T21:40:12.410Z,100502.85
2019-02-17T21:42:41.603Z,100500.70
2019-02-17T21:45:12.417Z,100494.56
2019-02-17T21:47:41.133Z,100506.38
2019-02-17T21:50:13.929Z,100512.41
2019-02-17T21:52:42.675Z,100516.83
2019-02-17T21:55:12.601Z,100510.02
2019-02-17T21:57:41.660Z,100513.17
2019-02-17T22:00:19.851Z,100512.07
2019-02-17T22:02:48.613Z,100511.73
2019-02-17T22:05:17.359Z,100516.66
2019-02-17T22:07:46.078Z,100516.28
2019-02-17T22:10:20.236Z,100512.58
2019-02-17T22:12:51.023Z,100515.76
2019-02-17T22:15:23.925Z,100520.27
2019-02-17T22:17:52.886Z,100515.75
2019-02-17T22:20:21.606Z,100518.30
2019-02-17T22:22:50.341Z,100516.73
2019-02-17T22:25:19.305Z,100521.34
2019-02-17T22:27:48.047Z,100520.44
2019-02-17T22:30:16.865Z,100519.75
2019-02-17T22:32:45.881Z,100521.94
2019-02-17T22:35:14.599Z,100526.31
2019-02-17T22:37:43.329Z,100522.34
2019-02-17T22:40:16.188Z,100519.22
2019-02-17T22:42:44.921Z,100524.50
2019-02-17T22:45:13.859Z,100521.21
2019-02-17T22:47:43.672Z,100523.54
2019-02-17T22:50:14.841Z,100522.74
2019-02-17T22:52:44.667Z,100522.72
2019-02-17T22:55:14.367Z,100523.70
2019-02-17T22:57:43.095Z,100524.01
2019-02-17T23:00:51.210Z,100518.61
2019-02-17T23:03:20.036Z,100515.67
2019-02-17T23:05:48.868Z,100512.39
2019-02-17T23:08:17.733Z,100516.98
2019-02-17T23:10:52.656Z,100513.78
2019-02-17T23:13:21.385Z,100507.80
2019-02-17T23:15:50.448Z,100498.63
2019-02-17T23:18:19.179Z,100500.05
2019-02-17T23:20:47.921Z,100500.16
2019-02-17T23:23:16.753Z,100499.14
2019-02-17T23:25:45.492Z,100501.48
2019-02-17T23:28:14.213Z,100498.48
2019-02-17T23:30:42.973Z,100499.20
2019-02-17T23:33:11.693Z,100492.83
2019-02-17T23:35:40.451Z,100488.73
2019-02-17T23:38:09.224Z,100487.72
2019-02-17T23:40:37.952Z,100492.38
2019-02-17T23:43:06.677Z,100492.87
2019-02-17T23:45:37.891Z,100497.71
2019-02-17T23:48:06.615Z,100493.58
2019-02-17T23:50:35.345Z,100496.16
2019-02-17T23:53:04.226Z,100498.28
2019-02-17T23:55:32.954Z,100493.36
2019-02-17T23:58:01.679Z,100500.91
